createdAt,value
2017-05-18T00:00:16.857Z,0
2017-05-18T00:01:17.854Z,0
2017-05-18T00:02:12.943Z,0
2017-05-18T00:03:01.947Z,0
2017-05-18T00:03:51.004Z,0
2017-05-18T00:04:45.041Z,0
2017-05-18T00:05:45.135Z,0
2017-05-18T00:06:39.148Z,0
2017-05-18T00:07:34.139Z,0
2017-05-18T00:08:22.243Z,0
2017-05-18T00:09:22.371Z,0
2017-05-18T00:10:16.269Z,0
2017-05-18T00:11:04.345Z,0
2017-05-18T00:11:58.419Z,0
2017-05-18T00:12:52.928Z,0
2017-05-18T00:13:53.466Z,0
2017-05-18T00:14:47.548Z,0
2017-05-18T00:15:47.575Z,0
2017-05-18T00:16:36.596Z,0
2017-05-18T00:17:25.662Z,0
2017-05-18T00:18:20.667Z,0
2017-05-18T00:19:20.747Z,0
2017-05-18T00:20:14.753Z,0
2017-05-18T00:21:09.911Z,0
2017-05-18T00:21:57.883Z,0
2017-05-18T00:22:46.171Z,0
2017-05-18T00:23:34.375Z,0
2017-05-18T00:24:28.947Z,0
2017-05-18T00:25:23.247Z,0
2017-05-18T00:26:23.108Z,0
2017-05-18T00:27:18.170Z,0
2017-05-18T00:28:19.156Z,0
2017-05-18T00:29:19.197Z,0
2017-05-18T00:30:08.217Z,0
2017-05-18T00:30:57.351Z,0
2017-05-18T00:31:52.338Z,0
2017-05-18T00:32:52.373Z,0
2017-05-18T00:33:52.455Z,0
2017-05-18T00:34:52.454Z,0
2017-05-18T00:35:46.510Z,0
2017-05-18T00:36:40.553Z,0
2017-05-18T00:37:34.584Z,0
2017-05-18T00:38:29.635Z,0
2017-05-18T00:39:23.679Z,0
2017-05-18T00:40:24.830Z,0
2017-05-18T00:41:13.728Z,0
2017-05-18T00:42:13.844Z,0
2017-05-18T00:43:07.846Z,0
2017-05-18T00:43:55.910Z,0
2017-05-18T00:44:49.922Z,0
2017-05-18T00:45:45.035Z,0
2017-05-18T00:46:39.025Z,0
2017-05-18T00:47:28.035Z,0
2017-05-18T00:48:23.152Z,0
2017-05-18T00:49:17.157Z,0
2017-05-18T00:50:11.170Z,0
2017-05-18T00:51:11.248Z,0
2017-05-18T00:52:05.253Z,0
2017-05-18T00:52:54.369Z,0
2017-05-18T00:53:43.358Z,0
2017-05-18T00:54:43.427Z,0
2017-05-18T00:55:31.440Z,0
2017-05-18T00:56:25.463Z,0
2017-05-18T00:57:19.555Z,0
2017-05-18T00:58:14.717Z,0
2017-05-18T00:59:03.693Z,0
2017-05-18T01:00:03.678Z,0
2017-05-18T01:00:58.668Z,0
2017-05-18T01:01:47.754Z,0
2017-05-18T01:02:35.869Z,0
2017-05-18T01:03:36.057Z,0
2017-05-18T01:04:30.854Z,0
2017-05-18T01:05:25.971Z,0
2017-05-18T01:06:25.994Z,0
2017-05-18T01:07:20.975Z,0
2017-05-18T01:08:16.055Z,0
2017-05-18T01:09:16.049Z,0
2017-05-18T01:10:11.118Z,0
2017-05-18T01:11:05.160Z,0
2017-05-18T01:12:05.221Z,0
2017-05-18T01:12:59.241Z,0
2017-05-18T01:13:59.253Z,0
2017-05-18T01:14:48.379Z,0
2017-05-18T01:15:42.339Z,0
2017-05-18T01:16:42.435Z,0
2017-05-18T01:17:36.451Z,0
2017-05-18T01:18:36.437Z,0
2017-05-18T01:19:31.583Z,0
2017-05-18T01:20:20.580Z,0
2017-05-18T01:21:09.616Z,0
2017-05-18T01:22:09.709Z,0
2017-05-18T01:22:57.747Z,0
2017-05-18T01:23:45.771Z,0
2017-05-18T01:24:33.860Z,0
2017-05-18T01:25:28.865Z,0
2017-05-18T01:26:28.965Z,0
2017-05-18T01:27:22.968Z,0
2017-05-18T01:28:22.934Z,0
2017-05-18T01:29:18.011Z,0
2017-05-18T01:30:24.058Z,0
2017-05-18T01:31:19.123Z,0
2017-05-18T01:32:19.134Z,0
2017-05-18T01:33:19.199Z,0
2017-05-18T01:34:13.187Z,0
2017-05-18T01:35:14.239Z,0
2017-05-18T01:36:02.325Z,0
2017-05-18T01:36:50.332Z,0
2017-05-18T01:37:39.389Z,0
2017-05-18T01:38:33.941Z,0
2017-05-18T01:39:21.486Z,0
2017-05-18T01:40:15.517Z,0
2017-05-18T01:41:15.593Z,0
2017-05-18T01:42:15.587Z,0
2017-05-18T01:43:21.684Z,0
2017-05-18T01:44:15.656Z,0
2017-05-18T01:45:15.693Z,0
2017-05-18T01:46:15.751Z,0
2017-05-18T01:47:15.883Z,0
2017-05-18T01:48:09.818Z,0
2017-05-18T01:49:09.870Z,0
2017-05-18T01:50:04.927Z,0
2017-05-18T01:50:59.945Z,0
2017-05-18T01:51:59.991Z,0
2017-05-18T01:52:55.521Z,0
2017-05-18T01:53:50.086Z,0
2017-05-18T01:54:51.137Z,0
2017-05-18T01:55:51.093Z,0
2017-05-18T01:56:46.187Z,0
2017-05-18T01:57:35.243Z,0
2017-05-18T01:58:35.896Z,0
2017-05-18T01:59:23.331Z,0
2017-05-18T02:00:23.323Z,0
2017-05-18T02:01:18.412Z,0
2017-05-18T02:02:12.504Z,0
2017-05-18T02:03:06.477Z,0
2017-05-18T02:04:01.542Z,0
2017-05-18T02:04:55.565Z,0
2017-05-18T02:05:49.658Z,0
2017-05-18T02:06:38.647Z,0
2017-05-18T02:07:38.767Z,0
2017-05-18T02:08:34.291Z,0
2017-05-18T02:09:28.783Z,0
2017-05-18T02:10:29.069Z,0
2017-05-18T02:11:23.851Z,0
2017-05-18T02:12:12.937Z,0
2017-05-18T02:13:01.930Z,0
2017-05-18T02:13:55.948Z,0
2017-05-18T02:14:51.037Z,0
2017-05-18T02:15:45.026Z,0
2017-05-18T02:16:45.149Z,0
2017-05-18T02:17:40.141Z,0
2017-05-18T02:18:36.054Z,0
2017-05-18T02:19:29.233Z,0
2017-05-18T02:20:24.266Z,0
2017-05-18T02:21:12.328Z,0
2017-05-18T02:22:06.538Z,0
2017-05-18T02:23:06.431Z,0
2017-05-18T02:23:55.631Z,0
2017-05-18T02:24:50.490Z,0
2017-05-18T02:25:44.509Z,0
2017-05-18T02:26:32.559Z,0
2017-05-18T02:27:32.613Z,0
2017-05-18T02:28:26.722Z,0
2017-05-18T02:29:21.669Z,0
2017-05-18T02:30:16.749Z,0
2017-05-18T02:31:10.817Z,0
2017-05-18T02:32:11.829Z,0
2017-05-18T02:33:06.045Z,0
2017-05-18T02:34:06.922Z,0
2017-05-18T02:35:06.963Z,0
2017-05-18T02:36:01.992Z,0
2017-05-18T02:36:56.997Z,0
2017-05-18T02:37:58.063Z,0
2017-05-18T02:38:58.139Z,0
2017-05-18T02:39:53.193Z,0
2017-05-18T02:40:53.142Z,0
2017-05-18T02:41:53.201Z,0
2017-05-18T02:42:59.281Z,0
2017-05-18T02:43:54.339Z,0
2017-05-18T02:44:54.333Z,0
2017-05-18T02:45:49.337Z,4
2017-05-18T02:46:44.437Z,4
2017-05-18T02:47:38.460Z,4
2017-05-18T02:48:44.924Z,0
2017-05-18T02:49:38.493Z,0
2017-05-18T02:50:44.885Z,4
2017-05-18T02:51:38.699Z,4
2017-05-18T02:52:39.647Z,4
2017-05-18T02:53:35.118Z,4
2017-05-18T02:54:29.288Z,4
2017-05-18T02:55:28.722Z,8
2017-05-18T02:56:23.946Z,4
2017-05-18T02:57:23.850Z,8
2017-05-18T02:58:17.904Z,8
2017-05-18T02:59:17.932Z,12
2017-05-18T03:00:11.943Z,12
2017-05-18T03:01:00.007Z,12
2017-05-18T03:01:54.055Z,12
2017-05-18T03:02:43.230Z,12
2017-05-18T03:03:31.169Z,16
2017-05-18T03:04:20.209Z,20
2017-05-18T03:05:08.210Z,20
2017-05-18T03:05:56.292Z,24
2017-05-18T03:06:50.798Z,24
2017-05-18T03:07:39.412Z,28
2017-05-18T03:08:27.439Z,28
2017-05-18T03:09:15.439Z,36
2017-05-18T03:10:04.602Z,36
2017-05-18T03:10:52.884Z,44
2017-05-18T03:11:40.889Z,48
2017-05-18T03:12:29.665Z,52
2017-05-18T03:13:17.733Z,60
2017-05-18T03:14:05.726Z,68
2017-05-18T03:14:59.809Z,76
2017-05-18T03:15:54.349Z,88
2017-05-18T03:16:47.848Z,100
2017-05-18T03:17:47.974Z,112
2017-05-18T03:18:42.966Z,124
2017-05-18T03:19:38.005Z,136
2017-05-18T03:20:39.066Z,152
2017-05-18T03:21:39.136Z,164
2017-05-18T03:22:34.115Z,176
2017-05-18T03:23:29.204Z,184
2017-05-18T03:24:29.246Z,196
2017-05-18T03:25:24.237Z,212
2017-05-18T03:26:18.273Z,224
2017-05-18T03:27:07.334Z,240
2017-05-18T03:28:07.387Z,260
2017-05-18T03:28:56.427Z,280
2017-05-18T03:29:56.544Z,296
2017-05-18T03:30:51.468Z,320
2017-05-18T03:31:51.517Z,340
2017-05-18T03:32:45.552Z,368
2017-05-18T03:33:39.573Z,396
2017-05-18T03:34:39.654Z,424
2017-05-18T03:35:39.707Z,456
2017-05-18T03:36:39.727Z,492
2017-05-18T03:37:39.723Z,536
2017-05-18T03:38:39.812Z,576
2017-05-18T03:39:39.865Z,616
2017-05-18T03:40:39.864Z,664
2017-05-18T03:41:39.946Z,716
2017-05-18T03:42:39.976Z,772
2017-05-18T03:43:39.984Z,836
2017-05-18T03:44:39.985Z,908
2017-05-18T03:45:40.101Z,980
2017-05-18T03:46:40.163Z,1060
2017-05-18T03:47:40.163Z,1140
2017-05-18T03:48:40.166Z,1224
2017-05-18T03:49:40.216Z,1320
2017-05-18T03:50:40.268Z,1420
2017-05-18T03:51:40.312Z,1528
2017-05-18T03:52:40.308Z,1648
2017-05-18T03:53:40.359Z,1768
2017-05-18T03:54:40.404Z,1896
2017-05-18T03:55:41.455Z,2032
2017-05-18T03:56:36.493Z,2160
2017-05-18T03:57:30.528Z,2296
2017-05-18T03:58:30.557Z,2452
2017-05-18T03:59:25.581Z,2596
2017-05-18T04:00:20.671Z,2740
2017-05-18T04:01:21.774Z,2892
2017-05-18T04:02:21.723Z,3028
2017-05-18T04:03:16.844Z,3156
2017-05-18T04:04:11.961Z,3272
2017-05-18T04:05:11.819Z,3396
2017-05-18T04:06:06.886Z,3500
2017-05-18T04:07:01.950Z,3616
2017-05-18T04:07:56.719Z,3724
2017-05-18T04:08:56.954Z,3840
2017-05-18T04:09:57.337Z,3944
2017-05-18T04:10:52.018Z,4044
2017-05-18T04:11:52.149Z,4160
2017-05-18T04:12:52.711Z,4308
2017-05-18T04:13:52.197Z,4456
2017-05-18T04:14:46.255Z,4600
2017-05-18T04:15:46.256Z,4780
2017-05-18T04:16:41.309Z,4924
2017-05-18T04:17:36.347Z,5040
2017-05-18T04:18:36.441Z,5136
2017-05-18T04:19:36.459Z,5224
2017-05-18T04:20:36.463Z,5308
2017-05-18T04:21:36.567Z,5408
2017-05-18T04:22:30.569Z,5492
2017-05-18T04:23:30.608Z,5572
2017-05-18T04:24:25.717Z,5636
2017-05-18T04:25:20.658Z,5712
2017-05-18T04:26:14.715Z,5792
2017-05-18T04:27:15.022Z,5880
2017-05-18T04:28:09.780Z,5964
2017-05-18T04:29:09.836Z,6076
2017-05-18T04:30:09.850Z,6264
2017-05-18T04:31:09.906Z,6412
2017-05-18T04:32:03.905Z,6712
2017-05-18T04:33:03.974Z,7372
2017-05-18T04:33:59.032Z,7212
2017-05-18T04:34:59.045Z,7680
2017-05-18T04:36:00.108Z,8424
2017-05-18T04:37:01.125Z,8188
2017-05-18T04:38:02.328Z,7920
2017-05-18T04:38:56.217Z,8604
2017-05-18T04:39:57.848Z,9088
2017-05-18T04:40:57.310Z,9504
2017-05-18T04:41:52.355Z,9440
2017-05-18T04:42:52.998Z,9260
2017-05-18T04:43:53.430Z,9328
2017-05-18T04:44:53.470Z,9964
2017-05-18T04:45:59.518Z,10408
2017-05-18T04:46:54.545Z,10328
2017-05-18T04:47:48.632Z,10380
2017-05-18T04:48:43.653Z,10776
2017-05-18T04:49:37.647Z,11344
2017-05-18T04:50:32.756Z,11648
2017-05-18T04:51:20.867Z,11656
2017-05-18T04:52:10.054Z,11804
2017-05-18T04:52:58.511Z,11896
2017-05-18T04:53:47.014Z,13048
2017-05-18T04:54:36.239Z,13372
2017-05-18T04:55:25.579Z,13932
2017-05-18T04:56:14.259Z,13624
2017-05-18T04:57:08.311Z,13260
2017-05-18T04:57:57.112Z,12808
2017-05-18T04:58:45.455Z,12036
2017-05-18T04:59:34.522Z,13280
2017-05-18T05:00:28.584Z,14152
2017-05-18T05:01:16.631Z,15200
2017-05-18T05:02:10.773Z,15232
2017-05-18T05:02:58.742Z,15040
2017-05-18T05:03:52.829Z,15328
2017-05-18T05:04:41.028Z,15456
2017-05-18T05:05:40.998Z,15296
2017-05-18T05:06:29.083Z,15616
2017-05-18T05:07:17.221Z,15584
2017-05-18T05:08:17.412Z,15936
2017-05-18T05:09:12.294Z,16160
2017-05-18T05:10:12.815Z,16608
2017-05-18T05:11:01.448Z,17216
2017-05-18T05:12:01.458Z,17568
2017-05-18T05:12:57.102Z,17536
2017-05-18T05:13:45.007Z,17664
2017-05-18T05:14:33.125Z,17888
2017-05-18T05:15:22.190Z,19104
2017-05-18T05:16:11.284Z,19584
2017-05-18T05:17:05.385Z,20736
2017-05-18T05:17:53.515Z,18880
2017-05-18T05:18:42.496Z,15612
2017-05-18T05:19:37.379Z,18688
2017-05-18T05:20:37.531Z,18080
2017-05-18T05:21:37.646Z,17568
2017-05-18T05:22:26.827Z,18272
2017-05-18T05:23:26.850Z,17792
2017-05-18T05:24:26.563Z,17056
2017-05-18T05:25:20.770Z,16000
2017-05-18T05:26:14.650Z,12096
2017-05-18T05:27:03.010Z,17568
2017-05-18T05:27:57.508Z,18592
2017-05-18T05:28:51.816Z,19648
2017-05-18T05:29:45.944Z,19296
2017-05-18T05:30:46.488Z,15936
2017-05-18T05:31:41.452Z,15128
2017-05-18T05:32:29.178Z,14828
2017-05-18T05:33:23.591Z,15552
2017-05-18T05:34:23.340Z,17472
2017-05-18T05:35:17.424Z,15192
2017-05-18T05:36:11.717Z,20288
2017-05-18T05:37:00.467Z,19520
2017-05-18T05:37:55.069Z,22336
2017-05-18T05:38:49.953Z,23232
2017-05-18T05:39:44.717Z,22752
2017-05-18T05:40:38.788Z,22144
2017-05-18T05:41:26.805Z,21152
2017-05-18T05:42:16.174Z,20576
2017-05-18T05:43:09.946Z,17760
2017-05-18T05:44:04.049Z,17408
2017-05-18T05:44:59.436Z,19168
2017-05-18T05:45:54.404Z,20960
2017-05-18T05:46:48.242Z,18208
2017-05-18T05:47:48.571Z,20960
2017-05-18T05:48:43.479Z,22144
2017-05-18T05:49:37.909Z,21152
2017-05-18T05:50:26.928Z,22784
2017-05-18T05:51:21.129Z,23360
2017-05-18T05:52:15.134Z,18240
2017-05-18T05:53:16.028Z,13636
2017-05-18T05:54:10.318Z,22304
2017-05-18T05:55:04.304Z,21504
2017-05-18T05:56:05.328Z,21088
2017-05-18T05:57:00.500Z,19200
2017-05-18T05:57:55.657Z,14776
2017-05-18T05:58:55.346Z,15968
2017-05-18T05:59:44.560Z,15184
2017-05-18T06:00:33.971Z,15808
2017-05-18T06:01:22.641Z,15396
2017-05-18T06:02:17.165Z,16800
2017-05-18T06:03:10.818Z,17536
2017-05-18T06:04:05.551Z,19168
2017-05-18T06:04:54.892Z,20224
2017-05-18T06:05:49.711Z,20224
2017-05-18T06:06:38.816Z,21152
2017-05-18T06:07:32.886Z,21120
2017-05-18T06:08:20.924Z,21664
2017-05-18T06:09:10.262Z,21024
2017-05-18T06:09:58.094Z,20160
2017-05-18T06:10:52.479Z,21056
2017-05-18T06:11:47.623Z,20896
2017-05-18T06:12:41.271Z,23328
2017-05-18T06:13:41.352Z,24640
2017-05-18T06:14:36.568Z,26560
2017-05-18T06:15:31.421Z,30784
2017-05-18T06:16:25.757Z,35168
2017-05-18T06:17:14.764Z,42336
2017-05-18T06:18:03.868Z,42336
2017-05-18T06:19:10.000Z,44064
2017-05-18T06:20:03.791Z,35008
2017-05-18T06:20:53.362Z,38304
2017-05-18T06:21:40.919Z,31200
2017-05-18T06:22:35.956Z,41216
2017-05-18T06:23:25.443Z,35232
2017-05-18T06:24:20.171Z,39968
2017-05-18T06:25:14.334Z,43136
2017-05-18T06:26:08.720Z,44128
2017-05-18T06:26:56.757Z,43872
2017-05-18T06:27:51.054Z,48128
2017-05-18T06:28:40.348Z,35008
2017-05-18T06:29:29.018Z,42336
2017-05-18T06:30:18.127Z,49216
2017-05-18T06:31:13.184Z,48384
2017-05-18T06:32:07.209Z,43168
2017-05-18T06:33:07.478Z,45504
2017-05-18T06:34:02.776Z,40032
2017-05-18T06:34:51.643Z,43456
2017-05-18T06:35:40.595Z,33376
2017-05-18T06:36:34.626Z,33216
2017-05-18T06:37:28.756Z,21664
2017-05-18T06:38:17.946Z,21344
2017-05-18T06:39:12.269Z,21536
2017-05-18T06:40:06.968Z,21760
2017-05-18T06:40:56.099Z,22208
2017-05-18T06:41:45.146Z,22592
2017-05-18T06:42:34.194Z,23488
2017-05-18T06:43:28.319Z,25312
2017-05-18T06:44:22.304Z,26368
2017-05-18T06:45:16.328Z,26592
2017-05-18T06:46:17.402Z,25792
2017-05-18T06:47:18.439Z,25280
2017-05-18T06:48:12.566Z,25696
2017-05-18T06:49:01.590Z,25824
2017-05-18T06:49:55.684Z,25696
2017-05-18T06:50:44.724Z,27264
2017-05-18T06:51:44.807Z,38336
2017-05-18T06:52:38.920Z,34368
2017-05-18T06:53:32.962Z,36960
2017-05-18T06:54:20.966Z,37824
2017-05-18T06:55:15.139Z,29280
2017-05-18T06:56:04.071Z,33472
2017-05-18T06:56:58.213Z,38016
2017-05-18T06:57:53.214Z,39488
2017-05-18T06:58:41.378Z,35360
2017-05-18T06:59:41.438Z,36000
2017-05-18T07:00:35.507Z,41600
2017-05-18T07:01:24.212Z,45088
2017-05-18T07:02:13.479Z,41792
2017-05-18T07:03:02.844Z,31360
2017-05-18T07:03:50.543Z,29856
2017-05-18T07:04:39.626Z,30240
2017-05-18T07:05:28.788Z,31040
2017-05-18T07:06:23.165Z,37536
2017-05-18T07:07:16.775Z,38464
2017-05-18T07:08:17.767Z,44032
2017-05-18T07:09:07.305Z,31200
2017-05-18T07:10:00.947Z,30112
2017-05-18T07:10:55.520Z,25952
2017-05-18T07:11:49.084Z,25184
2017-05-18T07:12:37.156Z,25664
2017-05-18T07:13:26.464Z,25632
2017-05-18T07:14:21.579Z,25120
2017-05-18T07:15:09.345Z,25248
2017-05-18T07:15:58.623Z,26272
2017-05-18T07:16:52.499Z,28160
2017-05-18T07:17:53.045Z,24064
2017-05-18T07:18:41.661Z,22816
2017-05-18T07:19:35.741Z,22784
2017-05-18T07:20:30.252Z,23520
2017-05-18T07:21:24.424Z,21696
2017-05-18T07:22:18.126Z,20960
2017-05-18T07:23:19.412Z,20256
2017-05-18T07:24:07.291Z,19456
2017-05-18T07:25:02.161Z,18464
2017-05-18T07:25:57.240Z,17824
2017-05-18T07:26:52.749Z,16768
2017-05-18T07:27:46.432Z,15624
2017-05-18T07:28:41.471Z,13888
2017-05-18T07:29:35.701Z,12124
2017-05-18T07:30:29.526Z,11004
2017-05-18T07:31:24.640Z,10720
2017-05-18T07:32:24.656Z,10316
2017-05-18T07:33:25.079Z,10060
2017-05-18T07:34:18.881Z,9932
2017-05-18T07:35:13.162Z,9724
2017-05-18T07:36:08.263Z,9256
2017-05-18T07:37:02.020Z,8776
2017-05-18T07:37:57.476Z,8804
2017-05-18T07:38:58.943Z,8824
2017-05-18T07:39:59.082Z,8680
2017-05-18T07:40:53.600Z,8516
2017-05-18T07:41:47.674Z,7912
2017-05-18T07:42:48.462Z,7052
2017-05-18T07:43:43.292Z,6200
2017-05-18T07:44:38.635Z,5480
2017-05-18T07:45:32.387Z,5264
2017-05-18T07:46:32.437Z,5928
2017-05-18T07:47:26.781Z,6920
2017-05-18T07:48:26.934Z,7964
2017-05-18T07:49:14.604Z,8444
2017-05-18T07:50:08.617Z,8188
2017-05-18T07:51:08.721Z,8520
2017-05-18T07:52:03.753Z,9972
2017-05-18T07:52:59.306Z,11160
2017-05-18T07:53:58.838Z,13168
2017-05-18T07:54:52.936Z,15696
2017-05-18T07:55:47.011Z,19232
2017-05-18T07:56:34.940Z,23776
2017-05-18T07:57:34.991Z,25376
2017-05-18T07:58:29.506Z,29280
2017-05-18T07:59:23.154Z,32704
2017-05-18T08:00:18.347Z,35168
2017-05-18T08:01:07.395Z,36416
2017-05-18T08:02:07.736Z,36864
2017-05-18T08:03:01.862Z,35296
2017-05-18T08:03:55.437Z,34496
2017-05-18T08:04:50.551Z,33600
2017-05-18T08:05:44.883Z,33248
2017-05-18T08:06:39.543Z,31200
2017-05-18T08:07:39.691Z,27232
2017-05-18T08:08:34.634Z,24096
2017-05-18T08:09:28.715Z,22496
2017-05-18T08:10:28.822Z,21696
2017-05-18T08:11:17.830Z,21248
2017-05-18T08:12:12.456Z,21472
2017-05-18T08:13:06.932Z,21728
2017-05-18T08:14:00.997Z,21984
2017-05-18T08:14:56.466Z,22400
2017-05-18T08:15:45.697Z,22144
2017-05-18T08:16:40.176Z,19904
2017-05-18T08:17:34.269Z,17280
2017-05-18T08:18:29.269Z,15500
2017-05-18T08:19:18.313Z,14368
2017-05-18T08:20:07.406Z,13056
2017-05-18T08:20:56.476Z,12648
2017-05-18T08:21:57.542Z,12744
2017-05-18T08:22:46.842Z,12592
2017-05-18T08:23:40.622Z,13076
2017-05-18T08:24:34.626Z,14480
2017-05-18T08:25:28.710Z,15396
2017-05-18T08:26:17.781Z,15168
2017-05-18T08:27:11.800Z,14108
2017-05-18T08:28:12.261Z,13440
2017-05-18T08:29:11.922Z,13480
2017-05-18T08:30:12.141Z,13588
2017-05-18T08:31:11.942Z,14000
2017-05-18T08:32:07.041Z,14692
2017-05-18T08:33:01.853Z,15196
2017-05-18T08:34:01.248Z,14572
2017-05-18T08:34:56.239Z,14668
2017-05-18T08:35:56.236Z,15796
2017-05-18T08:36:50.417Z,19232
2017-05-18T08:37:44.348Z,24064
2017-05-18T08:38:39.355Z,33248
2017-05-18T08:39:34.428Z,38624
2017-05-18T08:40:29.468Z,41824
2017-05-18T08:41:23.502Z,47872
2017-05-18T08:42:23.619Z,44832
2017-05-18T08:43:23.664Z,50816
2017-05-18T08:44:17.839Z,56736
2017-05-18T08:45:11.857Z,68128
2017-05-18T08:46:05.889Z,48768
2017-05-18T08:46:53.952Z,46656
2017-05-18T08:47:48.103Z,45728
2017-05-18T08:48:43.045Z,48608
2017-05-18T08:49:38.134Z,33664
2017-05-18T08:50:32.208Z,29664
2017-05-18T08:51:27.526Z,33152
2017-05-18T08:52:21.359Z,35360
2017-05-18T08:53:16.408Z,37024
2017-05-18T08:54:10.814Z,33024
2017-05-18T08:55:04.586Z,30496
2017-05-18T08:56:00.072Z,27392
2017-05-18T08:57:00.057Z,26688
2017-05-18T08:58:00.350Z,26464
2017-05-18T08:58:47.821Z,27072
2017-05-18T08:59:47.874Z,27712
2017-05-18T09:00:37.171Z,26752
2017-05-18T09:01:31.364Z,24480
2017-05-18T09:02:26.041Z,24000
2017-05-18T09:03:14.109Z,24608
2017-05-18T09:04:15.193Z,25216
2017-05-18T09:05:15.233Z,23712
2017-05-18T09:06:10.491Z,23872
2017-05-18T09:07:10.547Z,26496
2017-05-18T09:08:05.338Z,28640
2017-05-18T09:08:54.484Z,28480
2017-05-18T09:09:54.522Z,29152
2017-05-18T09:10:54.537Z,27040
2017-05-18T09:11:48.684Z,28928
2017-05-18T09:12:44.009Z,32032
2017-05-18T09:13:32.753Z,35840
2017-05-18T09:14:26.904Z,42752
2017-05-18T09:15:15.809Z,48448
2017-05-18T09:16:09.883Z,52384
2017-05-18T09:17:10.972Z,63616
2017-05-18T09:18:00.607Z,61536
2017-05-18T09:18:49.095Z,61088
2017-05-18T09:19:43.268Z,50176
2017-05-18T09:20:38.224Z,48864
2017-05-18T09:21:27.389Z,48192
2017-05-18T09:22:21.728Z,47168
2017-05-18T09:23:15.590Z,46240
2017-05-18T09:24:09.983Z,49344
2017-05-18T09:25:10.214Z,64576
2017-05-18T09:25:58.770Z,57984
2017-05-18T09:26:52.845Z,50240
2017-05-18T09:27:47.319Z,48352
2017-05-18T09:28:40.984Z,48160
2017-05-18T09:29:36.276Z,73504
2017-05-18T09:30:31.196Z,66624
2017-05-18T09:31:20.423Z,60192
2017-05-18T09:32:09.532Z,59264
2017-05-18T09:33:04.929Z,45152
2017-05-18T09:33:54.477Z,51232
2017-05-18T09:34:42.001Z,52416
2017-05-18T09:35:36.112Z,50016
2017-05-18T09:36:31.152Z,40384
2017-05-18T09:37:19.099Z,61600
2017-05-18T09:38:14.310Z,58720
2017-05-18T09:39:08.744Z,47136
2017-05-18T09:40:02.396Z,44320
2017-05-18T09:41:02.602Z,38112
2017-05-18T09:42:02.450Z,38880
2017-05-18T09:42:56.520Z,46944
2017-05-18T09:43:51.772Z,55456
2017-05-18T09:44:52.225Z,43744
2017-05-18T09:45:45.749Z,39104
2017-05-18T09:46:41.066Z,37312
2017-05-18T09:47:34.865Z,36384
2017-05-18T09:48:35.080Z,30368
2017-05-18T09:49:30.198Z,28320
2017-05-18T09:50:24.675Z,34752
2017-05-18T09:51:13.357Z,49280
2017-05-18T09:52:02.479Z,44128
2017-05-18T09:52:51.491Z,34912
2017-05-18T09:53:45.486Z,32064
2017-05-18T09:54:39.409Z,35680
2017-05-18T09:55:33.918Z,34848
2017-05-18T09:56:33.344Z,31872
2017-05-18T09:57:28.678Z,28384
2017-05-18T09:58:22.797Z,25376
2017-05-18T09:59:17.084Z,23552
2017-05-18T10:00:06.100Z,23776
2017-05-18T10:00:54.962Z,23712
2017-05-18T10:01:49.158Z,23392
2017-05-18T10:02:38.156Z,23552
2017-05-18T10:03:37.834Z,24288
2017-05-18T10:04:32.329Z,26720
2017-05-18T10:05:32.062Z,31456
2017-05-18T10:06:26.033Z,44256
2017-05-18T10:07:20.075Z,33152
2017-05-18T10:08:14.111Z,31232
2017-05-18T10:09:09.203Z,31776
2017-05-18T10:09:58.305Z,31072
2017-05-18T10:10:58.290Z,30496
2017-05-18T10:11:47.424Z,30944
2017-05-18T10:12:41.589Z,30848
2017-05-18T10:13:41.754Z,31136
2017-05-18T10:14:35.492Z,32640
2017-05-18T10:15:36.575Z,35232
2017-05-18T10:16:36.808Z,69984
2017-05-18T10:17:37.067Z,34368
2017-05-18T10:18:31.135Z,30048
2017-05-18T10:19:19.330Z,30368
2017-05-18T10:20:13.355Z,43680
2017-05-18T10:21:07.470Z,42208
2017-05-18T10:22:02.628Z,34688
2017-05-18T10:22:57.312Z,29472
2017-05-18T10:23:52.583Z,24352
2017-05-18T10:24:46.664Z,19744
2017-05-18T10:25:41.809Z,15904
2017-05-18T10:26:47.847Z,14348
2017-05-18T10:27:53.931Z,15012
2017-05-18T10:28:47.937Z,18272
2017-05-18T10:29:37.070Z,23360
2017-05-18T10:30:26.188Z,27936
2017-05-18T10:31:21.254Z,27264
2017-05-18T10:32:22.174Z,26848
2017-05-18T10:33:17.307Z,26272
2017-05-18T10:34:12.332Z,27264
2017-05-18T10:35:01.394Z,27584
2017-05-18T10:35:50.464Z,22048
2017-05-18T10:36:45.567Z,20544
2017-05-18T10:37:39.666Z,22304
2017-05-18T10:38:33.619Z,24928
2017-05-18T10:39:28.722Z,27296
2017-05-18T10:40:22.319Z,28992
2017-05-18T10:41:16.711Z,28896
2017-05-18T10:42:04.860Z,29088
2017-05-18T10:42:59.467Z,30688
2017-05-18T10:43:53.775Z,31136
2017-05-18T10:44:47.677Z,29792
2017-05-18T10:45:35.704Z,29472
2017-05-18T10:46:30.272Z,30560
2017-05-18T10:47:23.841Z,33600
2017-05-18T10:48:19.353Z,37568
2017-05-18T10:49:08.339Z,40128
2017-05-18T10:49:57.063Z,43136
2017-05-18T10:50:52.252Z,49024
2017-05-18T10:51:47.495Z,48544
2017-05-18T10:52:47.167Z,42944
2017-05-18T10:53:41.674Z,39360
2017-05-18T10:54:35.495Z,37856
2017-05-18T10:55:30.387Z,34208
2017-05-18T10:56:19.596Z,30784
2017-05-18T10:57:19.620Z,28448
2017-05-18T10:58:13.997Z,27136
2017-05-18T10:59:08.837Z,25952
2017-05-18T10:59:57.631Z,23808
2017-05-18T11:00:52.010Z,22144
2017-05-18T11:01:45.811Z,21728
2017-05-18T11:02:45.792Z,23520
2017-05-18T11:03:41.422Z,26304
2017-05-18T11:04:34.989Z,29920
2017-05-18T11:05:29.228Z,32608
2017-05-18T11:06:24.027Z,34144
2017-05-18T11:07:13.114Z,34880
2017-05-18T11:08:08.437Z,35456
2017-05-18T11:09:02.492Z,35840
2017-05-18T11:10:02.320Z,35776
2017-05-18T11:10:56.547Z,35776
2017-05-18T11:11:51.650Z,35296
2017-05-18T11:12:46.616Z,34944
2017-05-18T11:13:35.692Z,34464
2017-05-18T11:14:24.683Z,33856
2017-05-18T11:15:13.899Z,33536
2017-05-18T11:16:07.887Z,33152
2017-05-18T11:17:03.039Z,32256
2017-05-18T11:17:57.323Z,31232
2017-05-18T11:18:52.276Z,31168
2017-05-18T11:19:53.371Z,31264
2017-05-18T11:20:47.398Z,30752
2017-05-18T11:21:41.486Z,30016
2017-05-18T11:22:36.589Z,29056
2017-05-18T11:23:30.601Z,27328
2017-05-18T11:24:24.729Z,25696
2017-05-18T11:25:18.704Z,24800
2017-05-18T11:26:12.786Z,24512
2017-05-18T11:27:06.792Z,24480
2017-05-18T11:28:00.847Z,24256
2017-05-18T11:28:55.974Z,23296
2017-05-18T11:29:49.972Z,22080
2017-05-18T11:30:44.109Z,21024
2017-05-18T11:31:44.073Z,20576
2017-05-18T11:32:39.179Z,20928
2017-05-18T11:33:27.134Z,20832
2017-05-18T11:34:27.199Z,19424
2017-05-18T11:35:21.294Z,17088
2017-05-18T11:36:21.292Z,13884
2017-05-18T11:37:15.362Z,11892
2017-05-18T11:38:15.411Z,10752
2017-05-18T11:39:09.512Z,10488
2017-05-18T11:40:03.589Z,11056
2017-05-18T11:40:57.594Z,12344
2017-05-18T11:41:51.551Z,14012
2017-05-18T11:42:46.650Z,14704
2017-05-18T11:43:40.763Z,14136
2017-05-18T11:44:35.816Z,13088
2017-05-18T11:45:30.865Z,12168
2017-05-18T11:46:24.924Z,11320
2017-05-18T11:47:18.890Z,10580
2017-05-18T11:48:18.959Z,10448
2017-05-18T11:49:14.035Z,10768
2017-05-18T11:50:03.072Z,11176
2017-05-18T11:50:51.124Z,11928
2017-05-18T11:51:46.350Z,12968
2017-05-18T11:52:35.223Z,14084
2017-05-18T11:53:29.309Z,15436
2017-05-18T11:54:23.388Z,17184
2017-05-18T11:55:17.529Z,18496
2017-05-18T11:56:17.405Z,19136
2017-05-18T11:57:12.484Z,18880
2017-05-18T11:58:01.550Z,18464
2017-05-18T11:58:56.556Z,18752
2017-05-18T11:59:50.613Z,19424
2017-05-18T12:00:44.681Z,20352
2017-05-18T12:01:39.787Z,21472
2017-05-18T12:02:33.776Z,21888
2017-05-18T12:03:27.828Z,21856
2017-05-18T12:04:21.929Z,21440
2017-05-18T12:05:16.961Z,21664
2017-05-18T12:06:12.003Z,21984
2017-05-18T12:07:06.034Z,21792
2017-05-18T12:07:54.004Z,21632
2017-05-18T12:08:49.161Z,21280
2017-05-18T12:09:44.175Z,21440
2017-05-18T12:10:39.237Z,22080
2017-05-18T12:11:27.578Z,22688
2017-05-18T12:12:21.366Z,23424
2017-05-18T12:13:21.382Z,24384